MiSS Mallory — WDB5044 — position and weather

sailwx.info

Track history (hours):
 
Tides and Currents Weather Stations Pressure Air Temp Water Temp Dewpoint Dewpoint Depression Visibility Wind Speed Wind Dir Waves Ship Positions

MiSS Mallory

Owner: POTOMAC RIVERBOAT COMPANY, ALEXANDRIA, VA. More information available from US FCC via Universal Licensing System and Coast Guard Vessel Documentation Center.

Last reported at 2017-Nov-15 01:35 UTC. Time now 2017-Nov-20 15:23 UTC.
Position N 38°48' W 077°02'.

Length 22 m; draft 2 m.

Type: Passenger vessel. MMSI: 366905270.

Date/timePositionNaut miles runAvg speedWind from/ knotsBaromVisibWave heightAir tempDewpointWater temp
2017-Nov-15 01:35N 38°48' W 077°02'0 0.0
2017-Nov-15 01:29N 38°48' W 077°02'0 0.0
2017-Nov-15 01:00N 38°48' W 077°02'4 6.9
2017-Nov-15 00:30N 38°52' W 077°02'3 5.5
2017-Nov-15 00:00N 38°54' W 077°04'4 7.0
2017-Nov-14 23:30N 38°51' W 077°01'3 4.2
2017-Nov-14 22:51N 38°48' W 077°02'0 0.0
2017-Nov-14 22:27N 38°48' W 077°02'0 0.0
2017-Nov-14 22:00N 38°48' W 077°02'0 0.0
2017-Nov-14 21:29N 38°48' W 077°02'  
2017-Nov-10 02:30N 38°48' W 077°02'0 0.0
2017-Nov-10 01:59N 38°48' W 077°02'0 0.0
2017-Nov-10 01:27N 38°48' W 077°02'0 0.0
2017-Nov-10 01:00N 38°48' W 077°02'1 1.9
2017-Nov-10 00:30N 38°49' W 077°02'4 8.3
2017-Nov-10 00:00N 38°53' W 077°03'0 0.5
2017-Nov-09 23:28N 38°53' W 077°03'4 7.7
2017-Nov-09 23:00N 38°50' W 077°02'1 2.4
2017-Nov-09 22:28N 38°48' W 077°02'0 0.0
2017-Nov-09 21:57N 38°48' W 077°02'0 0.0
2017-Nov-09 21:29N 38°48' W 077°02'0 0.0
2017-Nov-08 16:34N 38°48' W 077°02'0 0.1
2017-Nov-08 16:28N 38°48' W 077°02'0 0.0
2017-Nov-08 16:00N 38°48' W 077°02'0 0.0
2017-Nov-08 15:29N 38°48' W 077°02'0 0.0
2017-Nov-08 14:54N 38°48' W 077°02'0 0.0
2017-Nov-08 14:29N 38°48' W 077°02'  
2017-Nov-05 20:26N 38°48' W 077°02'4 8.7
2017-Nov-05 20:00N 38°52' W 077°02'2 4.8
2017-Nov-05 19:29N 38°54' W 077°04'3 5.0
2017-Nov-05 18:58N 38°52' W 077°02'1 1.3
2017-Nov-05 18:29N 38°53' W 077°01'4 8.3
2017-Nov-05 17:59N 38°48' W 077°02'0 0.0
2017-Nov-05 17:29N 38°48' W 077°02'0 0.0
2017-Nov-05 17:00N 38°48' W 077°02'  
Track history (hours):
 
Tides and Currents Weather Stations Pressure Air Temp Water Temp Dewpoint Dewpoint Depression Visibility Wind Speed Wind Dir Waves Ship Positions

MiSS Mallory

Owner: POTOMAC RIVERBOAT COMPANY, ALEXANDRIA, VA. More information available from US FCC via Universal Licensing System and Coast Guard Vessel Documentation Center.

Last reported at 2017-Nov-15 01:35 UTC. Time now 2017-Nov-20 15:23 UTC.
Position N 38°48' W 077°02'.

Length 22 m; draft 2 m.

Type: Passenger vessel. MMSI: 366905270.

Date/timePositionNaut miles runAvg speedWind from/ knotsBaromVisibWave heightAir tempDewpointWater temp
2017-Nov-15 01:35N 38°48' W 077°02'0 0.0
2017-Nov-15 01:29N 38°48' W 077°02'0 0.0
2017-Nov-15 01:00N 38°48' W 077°02'4 6.9
2017-Nov-15 00:30N 38°52' W 077°02'3 5.5
2017-Nov-15 00:00N 38°54' W 077°04'4 7.0
2017-Nov-14 23:30N 38°51' W 077°01'3 4.2
2017-Nov-14 22:51N 38°48' W 077°02'0 0.0
2017-Nov-14 22:27N 38°48' W 077°02'0 0.0
2017-Nov-14 22:00N 38°48' W 077°02'0 0.0
2017-Nov-14 21:29N 38°48' W 077°02'  
2017-Nov-10 02:30N 38°48' W 077°02'0 0.0
2017-Nov-10 01:59N 38°48' W 077°02'0 0.0
2017-Nov-10 01:27N 38°48' W 077°02'0 0.0
2017-Nov-10 01:00N 38°48' W 077°02'1 1.9
2017-Nov-10 00:30N 38°49' W 077°02'4 8.3
2017-Nov-10 00:00N 38°53' W 077°03'0 0.5
2017-Nov-09 23:28N 38°53' W 077°03'4 7.7
2017-Nov-09 23:00N 38°50' W 077°02'1 2.4
2017-Nov-09 22:28N 38°48' W 077°02'0 0.0
2017-Nov-09 21:57N 38°48' W 077°02'0 0.0
2017-Nov-09 21:29N 38°48' W 077°02'0 0.0
2017-Nov-08 16:34N 38°48' W 077°02'0 0.1
2017-Nov-08 16:28N 38°48' W 077°02'0 0.0
2017-Nov-08 16:00N 38°48' W 077°02'0 0.0
2017-Nov-08 15:29N 38°48' W 077°02'0 0.0
2017-Nov-08 14:54N 38°48' W 077°02'0 0.0
2017-Nov-08 14:29N 38°48' W 077°02'  
2017-Nov-05 20:26N 38°48' W 077°02'4 8.7
2017-Nov-05 20:00N 38°52' W 077°02'2 4.8
2017-Nov-05 19:29N 38°54' W 077°04'3 5.0
2017-Nov-05 18:58N 38°52' W 077°02'1 1.3
2017-Nov-05 18:29N 38°53' W 077°01'4 8.3
2017-Nov-05 17:59N 38°48' W 077°02'0 0.0
2017-Nov-05 17:29N 38°48' W 077°02'0 0.0
2017-Nov-05 17:00N 38°48' W 077°02'  

Dump ship's entire track history